Parkston, South Dakota
Current Conditions -  °F | °C
As of 5:53 AM on Monday 22 Dec 2014 (Local Time) from KMHE Reporting Station
Haze Haze  
Wind Chill: 32°   Ceiling: 6000
Heat Index: 36°   Visibility: 5mi
Dew Point: 36°   Wind: 5mph
Humidity: 100%   Direction: 220°SW
Pressure: 29.44"   Gusts: NA
Location:  43.4°N, 97.98°W
Report Text: KMHE 221153Z AUTO 22004KT 5SM BR BKN060 OVC075 02/02 A2944 RMK AO2 RAE07 SLP980 P0000 60002 70002 T00220022 10033 20022 56006
Loading
Personal Weather Stations






























Interactive Weather Map New forecast layout! Learn more

10-Day Weather Forecast

Advertisements
Track Severe Weather on mobile